sensor_id;sensor_type;location;lat;lon;timestamp;temperature;humidity
74809;DHT22;63338;39.544;2.596;2023-02-28T00:01:09;6.20;91.30
74809;DHT22;63338;39.544;2.596;2023-02-28T00:03:35;6.30;90.90
74809;DHT22;63338;39.544;2.596;2023-02-28T00:06:03;6.20;91.60
74809;DHT22;63338;39.544;2.596;2023-02-28T00:08:30;6.30;90.50
74809;DHT22;63338;39.544;2.596;2023-02-28T00:11:00;6.20;90.40
74809;DHT22;63338;39.544;2.596;2023-02-28T00:13:26;6.30;90.40
74809;DHT22;63338;39.544;2.596;2023-02-28T00:16:02;6.30;90.30
74809;DHT22;63338;39.544;2.596;2023-02-28T00:18:29;6.30;89.40
74809;DHT22;63338;39.544;2.596;2023-02-28T00:20:55;6.20;89.10
74809;DHT22;63338;39.544;2.596;2023-02-28T00:23:24;6.40;89.20
74809;DHT22;63338;39.544;2.596;2023-02-28T00:25:50;6.50;89.40
74809;DHT22;63338;39.544;2.596;2023-02-28T00:28:19;6.60;89.70
74809;DHT22;63338;39.544;2.596;2023-02-28T00:30:46;6.40;89.80
74809;DHT22;63338;39.544;2.596;2023-02-28T00:33:12;6.40;89.70
74809;DHT22;63338;39.544;2.596;2023-02-28T00:35:39;6.40;89.00
74809;DHT22;63338;39.544;2.596;2023-02-28T00:38:05;6.50;87.40
74809;DHT22;63338;39.544;2.596;2023-02-28T00:40:32;6.60;86.70
74809;DHT22;63338;39.544;2.596;2023-02-28T00:42:58;6.70;85.30
74809;DHT22;63338;39.544;2.596;2023-02-28T00:45:24;6.70;86.90
74809;DHT22;63338;39.544;2.596;2023-02-28T00:47:50;6.90;85.60
74809;DHT22;63338;39.544;2.596;2023-02-28T00:50:19;6.90;86.70
74809;DHT22;63338;39.544;2.596;2023-02-28T00:52:46;7.00;86.40
74809;DHT22;63338;39.544;2.596;2023-02-28T00:55:12;6.90;85.50
74809;DHT22;63338;39.544;2.596;2023-02-28T00:57:38;7.00;83.70
74809;DHT22;63338;39.544;2.596;2023-02-28T01:00:07;7.00;83.90
74809;DHT22;63338;39.544;2.596;2023-02-28T01:02:34;7.10;84.20
74809;DHT22;63338;39.544;2.596;2023-02-28T01:05:00;7.20;82.00
74809;DHT22;63338;39.544;2.596;2023-02-28T01:07:26;7.30;82.00
74809;DHT22;63338;39.544;2.596;2023-02-28T01:09:52;7.20;81.80
74809;DHT22;63338;39.544;2.596;2023-02-28T01:12:18;7.20;81.30
74809;DHT22;63338;39.544;2.596;2023-02-28T01:14:44;7.40;80.80
74809;DHT22;63338;39.544;2.596;2023-02-28T01:17:10;7.30;81.30
74809;DHT22;63338;39.544;2.596;2023-02-28T01:19:37;7.50;81.50
74809;DHT22;63338;39.544;2.596;2023-02-28T01:22:04;7.40;81.10
74809;DHT22;63338;39.544;2.596;2023-02-28T01:24:31;7.50;81.60
74809;DHT22;63338;39.544;2.596;2023-02-28T01:26:57;7.50;82.10
74809;DHT22;63338;39.544;2.596;2023-02-28T01:29:23;7.50;82.40
74809;DHT22;63338;39.544;2.596;2023-02-28T01:31:49;7.40;80.80
74809;DHT22;63338;39.544;2.596;2023-02-28T01:34:18;7.70;81.80
74809;DHT22;63338;39.544;2.596;2023-02-28T01:36:45;7.50;80.80
74809;DHT22;63338;39.544;2.596;2023-02-28T01:39:11;7.60;81.90
74809;DHT22;63338;39.544;2.596;2023-02-28T01:41:39;7.50;80.60
74809;DHT22;63338;39.544;2.596;2023-02-28T01:47:10;7.80;82.20
74809;DHT22;63338;39.544;2.596;2023-02-28T01:49:37;7.50;80.80
74809;DHT22;63338;39.544;2.596;2023-02-28T01:52:14;7.60;81.80
74809;DHT22;63338;39.544;2.596;2023-02-28T01:54:47;7.60;82.50
74809;DHT22;63338;39.544;2.596;2023-02-28T01:57:18;7.70;82.20
74809;DHT22;63338;39.544;2.596;2023-02-28T01:59:50;7.70;82.00
74809;DHT22;63338;39.544;2.596;2023-02-28T02:02:19;7.70;82.60
74809;DHT22;63338;39.544;2.596;2023-02-28T02:05:03;7.50;83.10
74809;DHT22;63338;39.544;2.596;2023-02-28T02:07:32;7.50;82.30
74809;DHT22;63338;39.544;2.596;2023-02-28T02:16:04;7.20;85.80
74809;DHT22;63338;39.544;2.596;2023-02-28T02:18:40;7.10;86.40
74809;DHT22;63338;39.544;2.596;2023-02-28T02:23:55;7.00;88.10
74809;DHT22;63338;39.544;2.596;2023-02-28T02:34:42;6.70;89.10
74809;DHT22;63338;39.544;2.596;2023-02-28T02:39:54;6.80;90.00
74809;DHT22;63338;39.544;2.596;2023-02-28T02:42:29;6.70;90.80
74809;DHT22;63338;39.544;2.596;2023-02-28T02:45:11;6.70;90.60
74809;DHT22;63338;39.544;2.596;2023-02-28T02:47:38;6.60;90.40
74809;DHT22;63338;39.544;2.596;2023-02-28T02:50:11;6.60;90.30
74809;DHT22;63338;39.544;2.596;2023-02-28T02:52:42;6.60;90.70
74809;DHT22;63338;39.544;2.596;2023-02-28T02:55:12;6.50;91.10
74809;DHT22;63338;39.544;2.596;2023-02-28T02:57:58;6.60;91.20
74809;DHT22;63338;39.544;2.596;2023-02-28T03:00:32;6.50;91.00
74809;DHT22;63338;39.544;2.596;2023-02-28T03:02:59;6.40;89.80
74809;DHT22;63338;39.544;2.596;2023-02-28T03:05:33;6.30;90.90
74809;DHT22;63338;39.544;2.596;2023-02-28T03:08:03;6.60;91.00
74809;DHT22;63338;39.544;2.596;2023-02-28T03:10:41;6.40;91.00
74809;DHT22;63338;39.544;2.596;2023-02-28T03:13:23;6.50;91.30
74809;DHT22;63338;39.544;2.596;2023-02-28T03:21:38;6.40;91.40
74809;DHT22;63338;39.544;2.596;2023-02-28T03:24:13;6.30;91.40
74809;DHT22;63338;39.544;2.596;2023-02-28T03:26:43;6.30;91.60
74809;DHT22;63338;39.544;2.596;2023-02-28T03:29:26;6.20;91.30
74809;DHT22;63338;39.544;2.596;2023-02-28T03:32:29;6.30;91.50
74809;DHT22;63338;39.544;2.596;2023-02-28T03:35:38;6.50;91.60
74809;DHT22;63338;39.544;2.596;2023-02-28T03:40:48;6.40;91.20
74809;DHT22;63338;39.544;2.596;2023-02-28T03:43:20;6.40;91.60
74809;DHT22;63338;39.544;2.596;2023-02-28T03:45:48;6.40;91.90
74809;DHT22;63338;39.544;2.596;2023-02-28T03:48:18;6.30;91.70
74809;DHT22;63338;39.544;2.596;2023-02-28T03:50:48;6.20;91.40
74809;DHT22;63338;39.544;2.596;2023-02-28T03:53:29;6.40;91.90
74809;DHT22;63338;39.544;2.596;2023-02-28T03:56:19;6.10;92.30
74809;DHT22;63338;39.544;2.596;2023-02-28T03:59:01;6.10;92.50
74809;DHT22;63338;39.544;2.596;2023-02-28T04:01:36;6.00;92.50
74809;DHT22;63338;39.544;2.596;2023-02-28T04:04:04;6.10;92.40
74809;DHT22;63338;39.544;2.596;2023-02-28T04:06:31;6.10;92.50
74809;DHT22;63338;39.544;2.596;2023-02-28T04:08:58;6.10;92.90
74809;DHT22;63338;39.544;2.596;2023-02-28T04:11:34;6.10;92.70
74809;DHT22;63338;39.544;2.596;2023-02-28T04:14:01;6.10;92.60
74809;DHT22;63338;39.544;2.596;2023-02-28T04:16:29;6.10;93.00
74809;DHT22;63338;39.544;2.596;2023-02-28T04:18:55;6.00;93.10
74809;DHT22;63338;39.544;2.596;2023-02-28T04:21:31;6.20;93.40
74809;DHT22;63338;39.544;2.596;2023-02-28T04:23:57;6.00;93.10
74809;DHT22;63338;39.544;2.596;2023-02-28T04:26:36;6.10;93.10
74809;DHT22;63338;39.544;2.596;2023-02-28T04:29:04;6.30;93.40
74809;DHT22;63338;39.544;2.596;2023-02-28T04:31:30;6.10;93.10
74809;DHT22;63338;39.544;2.596;2023-02-28T04:33:57;6.10;93.20
74809;DHT22;63338;39.544;2.596;2023-02-28T04:36:23;6.00;93.30
74809;DHT22;63338;39.544;2.596;2023-02-28T04:38:50;6.10;93.30
74809;DHT22;63338;39.544;2.596;2023-02-28T04:41:16;6.00;93.30
74809;DHT22;63338;39.544;2.596;2023-02-28T04:43:43;6.00;93.40
74809;DHT22;63338;39.544;2.596;2023-02-28T04:46:09;5.90;93.10
74809;DHT22;63338;39.544;2.596;2023-02-28T04:48:37;6.00;93.20
74809;DHT22;63338;39.544;2.596;2023-02-28T04:51:08;6.20;93.10
74809;DHT22;63338;39.544;2.596;2023-02-28T04:53:36;6.00;92.70
74809;DHT22;63338;39.544;2.596;2023-02-28T04:56:03;6.10;93.00
74809;DHT22;63338;39.544;2.596;2023-02-28T04:58:32;6.10;92.80
74809;DHT22;63338;39.544;2.596;2023-02-28T05:01:06;5.90;93.00
74809;DHT22;63338;39.544;2.596;2023-02-28T05:03:39;6.20;93.30
74809;DHT22;63338;39.544;2.596;2023-02-28T05:06:11;6.20;92.60
74809;DHT22;63338;39.544;2.596;2023-02-28T05:08:38;6.10;92.90
74809;DHT22;63338;39.544;2.596;2023-02-28T05:11:06;6.10;93.20
74809;DHT22;63338;39.544;2.596;2023-02-28T05:13:34;6.00;93.00
74809;DHT22;63338;39.544;2.596;2023-02-28T05:16:01;6.10;93.10
74809;DHT22;63338;39.544;2.596;2023-02-28T05:18:27;6.20;93.00
74809;DHT22;63338;39.544;2.596;2023-02-28T05:20:53;6.00;93.00
74809;DHT22;63338;39.544;2.596;2023-02-28T05:23:21;6.00;92.90
74809;DHT22;63338;39.544;2.596;2023-02-28T05:25:48;6.10;93.10
74809;DHT22;63338;39.544;2.596;2023-02-28T05:28:14;6.10;93.10
74809;DHT22;63338;39.544;2.596;2023-02-28T05:30:40;5.90;93.00
74809;DHT22;63338;39.544;2.596;2023-02-28T05:33:06;6.00;93.00
74809;DHT22;63338;39.544;2.596;2023-02-28T05:35:32;6.00;93.20
74809;DHT22;63338;39.544;2.596;2023-02-28T05:37:58;6.00;93.70
74809;DHT22;63338;39.544;2.596;2023-02-28T05:40:24;6.00;93.70
74809;DHT22;63338;39.544;2.596;2023-02-28T05:42:50;5.90;94.10
74809;DHT22;63338;39.544;2.596;2023-02-28T05:45:17;6.00;93.50
74809;DHT22;63338;39.544;2.596;2023-02-28T05:47:43;6.00;93.30
74809;DHT22;63338;39.544;2.596;2023-02-28T05:50:09;6.00;93.60
74809;DHT22;63338;39.544;2.596;2023-02-28T05:52:36;5.70;93.80
74809;DHT22;63338;39.544;2.596;2023-02-28T05:55:06;5.80;93.60
74809;DHT22;63338;39.544;2.596;2023-02-28T05:57:32;5.80;93.70
74809;DHT22;63338;39.544;2.596;2023-02-28T05:59:58;6.00;94.30
74809;DHT22;63338;39.544;2.596;2023-02-28T06:02:24;5.90;94.20
74809;DHT22;63338;39.544;2.596;2023-02-28T06:04:50;6.00;94.50
74809;DHT22;63338;39.544;2.596;2023-02-28T06:07:16;6.00;94.80
74809;DHT22;63338;39.544;2.596;2023-02-28T06:09:43;6.00;94.90
74809;DHT22;63338;39.544;2.596;2023-02-28T06:12:10;6.10;95.00
74809;DHT22;63338;39.544;2.596;2023-02-28T06:14:36;6.20;94.90
74809;DHT22;63338;39.544;2.596;2023-02-28T06:17:03;6.20;95.20
74809;DHT22;63338;39.544;2.596;2023-02-28T06:19:29;6.00;95.60
74809;DHT22;63338;39.544;2.596;2023-02-28T06:21:56;6.10;95.60
74809;DHT22;63338;39.544;2.596;2023-02-28T06:24:24;6.10;95.80
74809;DHT22;63338;39.544;2.596;2023-02-28T06:26:58;6.20;95.80
74809;DHT22;63338;39.544;2.596;2023-02-28T06:29:34;6.20;95.90
74809;DHT22;63338;39.544;2.596;2023-02-28T06:32:00;6.30;95.80
74809;DHT22;63338;39.544;2.596;2023-02-28T06:34:26;6.40;95.50
74809;DHT22;63338;39.544;2.596;2023-02-28T06:36:52;6.20;95.60
74809;DHT22;63338;39.544;2.596;2023-02-28T06:39:19;6.20;95.60
74809;DHT22;63338;39.544;2.596;2023-02-28T06:41:45;6.30;95.30
74809;DHT22;63338;39.544;2.596;2023-02-28T06:44:20;6.40;95.40
74809;DHT22;63338;39.544;2.596;2023-02-28T06:46:47;6.30;95.10
74809;DHT22;63338;39.544;2.596;2023-02-28T06:49:14;6.40;95.40
74809;DHT22;63338;39.544;2.596;2023-02-28T06:51:42;6.30;95.20
74809;DHT22;63338;39.544;2.596;2023-02-28T06:54:11;6.30;95.20
74809;DHT22;63338;39.544;2.596;2023-02-28T06:56:38;6.40;95.40
74809;DHT22;63338;39.544;2.596;2023-02-28T06:59:05;6.30;95.30
74809;DHT22;63338;39.544;2.596;2023-02-28T07:01:31;6.20;95.10
74809;DHT22;63338;39.544;2.596;2023-02-28T07:03:59;6.30;94.90
74809;DHT22;63338;39.544;2.596;2023-02-28T07:06:26;6.30;94.70
74809;DHT22;63338;39.544;2.596;2023-02-28T07:08:53;6.20;94.90
74809;DHT22;63338;39.544;2.596;2023-02-28T07:11:21;6.30;94.70
74809;DHT22;63338;39.544;2.596;2023-02-28T07:13:55;6.20;94.60
74809;DHT22;63338;39.544;2.596;2023-02-28T07:16:22;6.20;94.80
74809;DHT22;63338;39.544;2.596;2023-02-28T07:18:48;6.10;95.00
74809;DHT22;63338;39.544;2.596;2023-02-28T07:21:15;6.20;95.30
74809;DHT22;63338;39.544;2.596;2023-02-28T07:23:41;6.00;95.20
74809;DHT22;63338;39.544;2.596;2023-02-28T07:26:18;5.90;95.20
74809;DHT22;63338;39.544;2.596;2023-02-28T07:28:46;5.90;95.30
74809;DHT22;63338;39.544;2.596;2023-02-28T07:31:16;6.20;95.30
74809;DHT22;63338;39.544;2.596;2023-02-28T07:33:50;6.20;95.40
74809;DHT22;63338;39.544;2.596;2023-02-28T07:36:17;6.10;95.30
74809;DHT22;63338;39.544;2.596;2023-02-28T07:38:46;6.20;95.40
74809;DHT22;63338;39.544;2.596;2023-02-28T07:41:17;6.20;95.10
74809;DHT22;63338;39.544;2.596;2023-02-28T07:43:44;6.20;94.70
74809;DHT22;63338;39.544;2.596;2023-02-28T07:46:13;6.40;95.20
74809;DHT22;63338;39.544;2.596;2023-02-28T07:48:41;6.30;95.20
74809;DHT22;63338;39.544;2.596;2023-02-28T07:51:10;6.20;95.10
74809;DHT22;63338;39.544;2.596;2023-02-28T07:53:36;6.40;95.40
74809;DHT22;63338;39.544;2.596;2023-02-28T07:56:03;6.50;95.50
74809;DHT22;63338;39.544;2.596;2023-02-28T07:58:29;6.40;95.70
74809;DHT22;63338;39.544;2.596;2023-02-28T08:00:56;6.50;95.40
74809;DHT22;63338;39.544;2.596;2023-02-28T08:03:23;6.60;95.60
74809;DHT22;63338;39.544;2.596;2023-02-28T08:05:50;6.60;95.60
74809;DHT22;63338;39.544;2.596;2023-02-28T08:08:16;6.50;95.60
74809;DHT22;63338;39.544;2.596;2023-02-28T08:10:43;6.40;95.40
74809;DHT22;63338;39.544;2.596;2023-02-28T08:13:09;6.60;95.10
74809;DHT22;63338;39.544;2.596;2023-02-28T08:15:35;6.40;95.10
74809;DHT22;63338;39.544;2.596;2023-02-28T08:18:02;6.50;95.50
74809;DHT22;63338;39.544;2.596;2023-02-28T08:20:28;6.60;96.00
74809;DHT22;63338;39.544;2.596;2023-02-28T08:22:57;6.80;96.40
74809;DHT22;63338;39.544;2.596;2023-02-28T08:25:22;6.90;96.70
74809;DHT22;63338;39.544;2.596;2023-02-28T08:27:51;6.80;96.80
74809;DHT22;63338;39.544;2.596;2023-02-28T08:30:18;7.00;96.90
74809;DHT22;63338;39.544;2.596;2023-02-28T08:32:44;7.10;96.80
74809;DHT22;63338;39.544;2.596;2023-02-28T08:35:10;7.20;96.80
74809;DHT22;63338;39.544;2.596;2023-02-28T08:37:36;7.30;96.80
74809;DHT22;63338;39.544;2.596;2023-02-28T08:40:03;7.30;96.60
74809;DHT22;63338;39.544;2.596;2023-02-28T08:42:29;7.30;96.60
74809;DHT22;63338;39.544;2.596;2023-02-28T08:44:56;7.30;96.90
74809;DHT22;63338;39.544;2.596;2023-02-28T08:47:22;7.40;96.70
74809;DHT22;63338;39.544;2.596;2023-02-28T08:49:48;7.50;96.70
74809;DHT22;63338;39.544;2.596;2023-02-28T08:52:14;7.70;96.40
74809;DHT22;63338;39.544;2.596;2023-02-28T08:54:40;7.60;96.70
74809;DHT22;63338;39.544;2.596;2023-02-28T08:57:06;7.70;96.50
74809;DHT22;63338;39.544;2.596;2023-02-28T08:59:32;7.70;96.60
74809;DHT22;63338;39.544;2.596;2023-02-28T09:02:10;7.80;96.30
74809;DHT22;63338;39.544;2.596;2023-02-28T09:04:38;7.80;96.10
74809;DHT22;63338;39.544;2.596;2023-02-28T09:07:04;7.90;95.70
74809;DHT22;63338;39.544;2.596;2023-02-28T09:09:30;8.00;96.00
74809;DHT22;63338;39.544;2.596;2023-02-28T09:11:59;8.00;95.00
74809;DHT22;63338;39.544;2.596;2023-02-28T09:14:25;7.90;95.30
74809;DHT22;63338;39.544;2.596;2023-02-28T09:16:52;8.00;95.50
74809;DHT22;63338;39.544;2.596;2023-02-28T09:19:18;8.00;95.20
74809;DHT22;63338;39.544;2.596;2023-02-28T09:21:47;8.10;94.90
74809;DHT22;63338;39.544;2.596;2023-02-28T09:24:13;8.00;94.80
74809;DHT22;63338;39.544;2.596;2023-02-28T09:26:40;8.00;94.70
74809;DHT22;63338;39.544;2.596;2023-02-28T09:29:08;8.10;94.50
74809;DHT22;63338;39.544;2.596;2023-02-28T09:31:34;8.10;94.70
74809;DHT22;63338;39.544;2.596;2023-02-28T09:34:06;8.10;94.90
74809;DHT22;63338;39.544;2.596;2023-02-28T09:36:33;8.10;95.10
74809;DHT22;63338;39.544;2.596;2023-02-28T09:39:00;8.10;94.90
74809;DHT22;63338;39.544;2.596;2023-02-28T09:41:37;8.10;94.50
74809;DHT22;63338;39.544;2.596;2023-02-28T09:44:07;8.20;94.20
74809;DHT22;63338;39.544;2.596;2023-02-28T09:46:42;8.00;94.10
74809;DHT22;63338;39.544;2.596;2023-02-28T09:49:15;8.20;94.30
74809;DHT22;63338;39.544;2.596;2023-02-28T09:52:05;8.20;94.50
74809;DHT22;63338;39.544;2.596;2023-02-28T09:54:35;8.10;94.40
74809;DHT22;63338;39.544;2.596;2023-02-28T10:04:00;8.10;94.00
74809;DHT22;63338;39.544;2.596;2023-02-28T10:06:30;8.10;94.00
74809;DHT22;63338;39.544;2.596;2023-02-28T10:09:00;8.20;94.30
74809;DHT22;63338;39.544;2.596;2023-02-28T10:11:28;8.20;94.20
74809;DHT22;63338;39.544;2.596;2023-02-28T10:16:34;8.20;94.00
74809;DHT22;63338;39.544;2.596;2023-02-28T10:19:14;8.30;94.00
74809;DHT22;63338;39.544;2.596;2023-02-28T10:21:50;8.20;94.20
74809;DHT22;63338;39.544;2.596;2023-02-28T10:24:41;8.20;94.40
74809;DHT22;63338;39.544;2.596;2023-02-28T10:27:17;8.40;94.10
74809;DHT22;63338;39.544;2.596;2023-02-28T10:30:05;8.50;94.20
74809;DHT22;63338;39.544;2.596;2023-02-28T10:32:34;8.40;94.00
74809;DHT22;63338;39.544;2.596;2023-02-28T10:37:43;8.60;93.40
74809;DHT22;63338;39.544;2.596;2023-02-28T10:40:34;8.60;93.70
74809;DHT22;63338;39.544;2.596;2023-02-28T10:46:02;8.80;93.70
74809;DHT22;63338;39.544;2.596;2023-02-28T10:48:39;8.90;93.80
74809;DHT22;63338;39.544;2.596;2023-02-28T10:51:10;8.80;93.40
74809;DHT22;63338;39.544;2.596;2023-02-28T10:53:55;9.00;93.60
74809;DHT22;63338;39.544;2.596;2023-02-28T10:56:24;9.10;94.20
74809;DHT22;63338;39.544;2.596;2023-02-28T11:01:26;8.80;93.80
74809;DHT22;63338;39.544;2.596;2023-02-28T11:03:59;8.80;94.10
74809;DHT22;63338;39.544;2.596;2023-02-28T11:06:31;8.80;94.00
74809;DHT22;63338;39.544;2.596;2023-02-28T11:09:00;9.10;94.90
74809;DHT22;63338;39.544;2.596;2023-02-28T11:11:45;9.40;94.40
74809;DHT22;63338;39.544;2.596;2023-02-28T11:14:46;9.40;93.10
74809;DHT22;63338;39.544;2.596;2023-02-28T11:17:27;9.40;92.80
74809;DHT22;63338;39.544;2.596;2023-02-28T11:19:57;9.30;92.70
74809;DHT22;63338;39.544;2.596;2023-02-28T11:22:27;9.20;92.90
74809;DHT22;63338;39.544;2.596;2023-02-28T11:25:02;9.20;92.50
74809;DHT22;63338;39.544;2.596;2023-02-28T11:30:00;9.10;93.30
74809;DHT22;63338;39.544;2.596;2023-02-28T11:32:30;8.90;93.10
74809;DHT22;63338;39.544;2.596;2023-02-28T11:35:10;9.00;93.20
74809;DHT22;63338;39.544;2.596;2023-02-28T11:37:48;8.90;92.20
74809;DHT22;63338;39.544;2.596;2023-02-28T11:40:15;8.70;92.80
74809;DHT22;63338;39.544;2.596;2023-02-28T11:48:27;8.60;93.20
74809;DHT22;63338;39.544;2.596;2023-02-28T11:51:24;8.70;93.20
74809;DHT22;63338;39.544;2.596;2023-02-28T11:56:55;8.50;93.70
74809;DHT22;63338;39.544;2.596;2023-02-28T11:59:56;8.50;93.80
74809;DHT22;63338;39.544;2.596;2023-02-28T12:05:42;8.50;94.10
74809;DHT22;63338;39.544;2.596;2023-02-28T12:11:14;8.60;93.70
74809;DHT22;63338;39.544;2.596;2023-02-28T12:27:33;8.80;94.20
74809;DHT22;63338;39.544;2.596;2023-02-28T12:30:13;8.70;94.00
74809;DHT22;63338;39.544;2.596;2023-02-28T12:32:47;8.60;93.80
74809;DHT22;63338;39.544;2.596;2023-02-28T12:35:43;8.50;93.90
74809;DHT22;63338;39.544;2.596;2023-02-28T12:38:22;8.50;93.80
74809;DHT22;63338;39.544;2.596;2023-02-28T12:41:03;8.40;94.40
74809;DHT22;63338;39.544;2.596;2023-02-28T12:43:36;8.30;94.30
74809;DHT22;63338;39.544;2.596;2023-02-28T12:46:12;8.40;94.30
74809;DHT22;63338;39.544;2.596;2023-02-28T12:48:46;8.40;94.40
74809;DHT22;63338;39.544;2.596;2023-02-28T12:51:13;8.40;94.10
74809;DHT22;63338;39.544;2.596;2023-02-28T12:54:19;8.30;94.40
74809;DHT22;63338;39.544;2.596;2023-02-28T12:57:09;8.30;94.60
74809;DHT22;63338;39.544;2.596;2023-02-28T13:10:45;8.40;95.40
74809;DHT22;63338;39.544;2.596;2023-02-28T13:13:23;8.50;95.20
74809;DHT22;63338;39.544;2.596;2023-02-28T13:18:39;8.70;95.40
74809;DHT22;63338;39.544;2.596;2023-02-28T13:21:57;8.80;95.20
74809;DHT22;63338;39.544;2.596;2023-02-28T13:24:44;8.80;94.90
74809;DHT22;63338;39.544;2.596;2023-02-28T13:29:51;8.80;94.50
74809;DHT22;63338;39.544;2.596;2023-02-28T13:39:57;9.20;94.90
74809;DHT22;63338;39.544;2.596;2023-02-28T13:47:34;9.60;94.10
74809;DHT22;63338;39.544;2.596;2023-02-28T13:50:36;9.70;93.80
74809;DHT22;63338;39.544;2.596;2023-02-28T14:07:57;10.10;91.40
74809;DHT22;63338;39.544;2.596;2023-02-28T14:10:40;10.10;92.60
74809;DHT22;63338;39.544;2.596;2023-02-28T14:15:59;10.10;91.80
74809;DHT22;63338;39.544;2.596;2023-02-28T14:18:37;10.10;91.20
74809;DHT22;63338;39.544;2.596;2023-02-28T14:21:32;10.00;90.80
74809;DHT22;63338;39.544;2.596;2023-02-28T14:27:03;9.70;91.60
74809;DHT22;63338;39.544;2.596;2023-02-28T14:32:44;9.50;91.40
74809;DHT22;63338;39.544;2.596;2023-02-28T14:43:52;9.30;92.00
74809;DHT22;63338;39.544;2.596;2023-02-28T14:46:20;9.20;92.30
74809;DHT22;63338;39.544;2.596;2023-02-28T14:48:48;9.10;92.40
74809;DHT22;63338;39.544;2.596;2023-02-28T14:51:25;9.00;92.80
74809;DHT22;63338;39.544;2.596;2023-02-28T14:54:01;9.10;92.70
74809;DHT22;63338;39.544;2.596;2023-02-28T14:56:38;9.10;93.10
74809;DHT22;63338;39.544;2.596;2023-02-28T14:59:20;9.10;93.20
74809;DHT22;63338;39.544;2.596;2023-02-28T15:01:51;9.00;93.10
74809;DHT22;63338;39.544;2.596;2023-02-28T15:04:26;9.00;93.40
74809;DHT22;63338;39.544;2.596;2023-02-28T15:07:13;8.90;93.50
74809;DHT22;63338;39.544;2.596;2023-02-28T15:09:39;9.20;93.30
74809;DHT22;63338;39.544;2.596;2023-02-28T15:12:06;9.10;93.30
74809;DHT22;63338;39.544;2.596;2023-02-28T15:14:42;9.00;93.40
74809;DHT22;63338;39.544;2.596;2023-02-28T15:17:15;9.00;93.60
74809;DHT22;63338;39.544;2.596;2023-02-28T15:19:48;8.90;93.60
74809;DHT22;63338;39.544;2.596;2023-02-28T15:22:19;9.00;93.80
74809;DHT22;63338;39.544;2.596;2023-02-28T15:24:51;9.00;93.90
74809;DHT22;63338;39.544;2.596;2023-02-28T15:27:42;9.10;93.70
74809;DHT22;63338;39.544;2.596;2023-02-28T15:30:28;9.20;93.50
74809;DHT22;63338;39.544;2.596;2023-02-28T15:33:20;9.20;93.60
74809;DHT22;63338;39.544;2.596;2023-02-28T15:35:46;9.10;93.10
74809;DHT22;63338;39.544;2.596;2023-02-28T15:38:17;9.20;93.20
74809;DHT22;63338;39.544;2.596;2023-02-28T15:40:46;9.20;93.50
74809;DHT22;63338;39.544;2.596;2023-02-28T15:43:32;9.10;92.90
74809;DHT22;63338;39.544;2.596;2023-02-28T15:48:44;9.10;92.60
74809;DHT22;63338;39.544;2.596;2023-02-28T15:54:01;9.10;93.40
74809;DHT22;63338;39.544;2.596;2023-02-28T15:56:33;9.10;92.90
74809;DHT22;63338;39.544;2.596;2023-02-28T15:59:05;9.10;92.80
74809;DHT22;63338;39.544;2.596;2023-02-28T16:04:36;9.20;92.80
74809;DHT22;63338;39.544;2.596;2023-02-28T16:07:05;9.10;92.30
74809;DHT22;63338;39.544;2.596;2023-02-28T16:09:32;9.20;91.80
74809;DHT22;63338;39.544;2.596;2023-02-28T16:12:02;9.30;92.00
74809;DHT22;63338;39.544;2.596;2023-02-28T16:14:29;9.20;91.00
74809;DHT22;63338;39.544;2.596;2023-02-28T16:17:04;9.20;91.50
74809;DHT22;63338;39.544;2.596;2023-02-28T16:19:31;9.00;91.30
74809;DHT22;63338;39.544;2.596;2023-02-28T16:21:58;9.10;91.60
74809;DHT22;63338;39.544;2.596;2023-02-28T16:24:24;9.10;91.80
74809;DHT22;63338;39.544;2.596;2023-02-28T16:26:52;8.90;91.60
74809;DHT22;63338;39.544;2.596;2023-02-28T16:29:30;8.90;91.60
74809;DHT22;63338;39.544;2.596;2023-02-28T16:31:57;9.00;91.90
74809;DHT22;63338;39.544;2.596;2023-02-28T16:34:27;9.00;92.50
74809;DHT22;63338;39.544;2.596;2023-02-28T16:36:53;8.90;91.30
74809;DHT22;63338;39.544;2.596;2023-02-28T16:39:19;9.00;91.50
74809;DHT22;63338;39.544;2.596;2023-02-28T16:41:49;9.00;91.40
74809;DHT22;63338;39.544;2.596;2023-02-28T16:44:30;8.90;91.80
74809;DHT22;63338;39.544;2.596;2023-02-28T16:46:59;9.00;91.90
74809;DHT22;63338;39.544;2.596;2023-02-28T16:49:26;9.00;92.00
74809;DHT22;63338;39.544;2.596;2023-02-28T16:51:53;8.90;91.90
74809;DHT22;63338;39.544;2.596;2023-02-28T16:54:19;9.10;91.80
74809;DHT22;63338;39.544;2.596;2023-02-28T16:56:47;9.00;91.90
74809;DHT22;63338;39.544;2.596;2023-02-28T16:59:22;9.00;91.70
74809;DHT22;63338;39.544;2.596;2023-02-28T17:01:50;8.90;91.30
74809;DHT22;63338;39.544;2.596;2023-02-28T17:04:16;8.90;91.40
74809;DHT22;63338;39.544;2.596;2023-02-28T17:06:43;9.00;91.60
74809;DHT22;63338;39.544;2.596;2023-02-28T17:09:27;8.90;91.50
74809;DHT22;63338;39.544;2.596;2023-02-28T17:11:56;9.00;91.60
74809;DHT22;63338;39.544;2.596;2023-02-28T17:14:22;8.90;90.80
74809;DHT22;63338;39.544;2.596;2023-02-28T17:16:51;9.00;91.40
74809;DHT22;63338;39.544;2.596;2023-02-28T17:19:22;9.00;91.90
74809;DHT22;63338;39.544;2.596;2023-02-28T17:21:50;8.90;92.00
74809;DHT22;63338;39.544;2.596;2023-02-28T17:24:17;9.00;92.50
74809;DHT22;63338;39.544;2.596;2023-02-28T17:26:43;9.00;92.40
74809;DHT22;63338;39.544;2.596;2023-02-28T17:29:18;9.00;92.60
74809;DHT22;63338;39.544;2.596;2023-02-28T17:31:50;9.00;92.50
74809;DHT22;63338;39.544;2.596;2023-02-28T17:34:16;9.00;92.00
74809;DHT22;63338;39.544;2.596;2023-02-28T17:36:45;9.10;92.40
74809;DHT22;63338;39.544;2.596;2023-02-28T17:39:13;9.10;92.40
74809;DHT22;63338;39.544;2.596;2023-02-28T17:41:47;9.10;92.90
74809;DHT22;63338;39.544;2.596;2023-02-28T17:44:13;8.90;92.90
74809;DHT22;63338;39.544;2.596;2023-02-28T17:46:42;9.10;93.40
74809;DHT22;63338;39.544;2.596;2023-02-28T17:49:09;9.10;93.20
74809;DHT22;63338;39.544;2.596;2023-02-28T17:51:35;9.00;93.60
74809;DHT22;63338;39.544;2.596;2023-02-28T17:54:01;9.00;93.60
74809;DHT22;63338;39.544;2.596;2023-02-28T17:56:28;9.00;93.90
74809;DHT22;63338;39.544;2.596;2023-02-28T17:58:55;9.00;93.70
74809;DHT22;63338;39.544;2.596;2023-02-28T18:01:22;9.00;93.80
74809;DHT22;63338;39.544;2.596;2023-02-28T18:03:51;9.00;93.60
74809;DHT22;63338;39.544;2.596;2023-02-28T18:08:50;8.90;93.60
74809;DHT22;63338;39.544;2.596;2023-02-28T18:11:18;8.90;93.70
74809;DHT22;63338;39.544;2.596;2023-02-28T18:13:48;9.00;93.60
74809;DHT22;63338;39.544;2.596;2023-02-28T18:16:15;9.10;93.70
74809;DHT22;63338;39.544;2.596;2023-02-28T18:18:43;9.00;93.60
74809;DHT22;63338;39.544;2.596;2023-02-28T18:21:11;9.00;93.90
74809;DHT22;63338;39.544;2.596;2023-02-28T18:23:38;9.00;94.20
74809;DHT22;63338;39.544;2.596;2023-02-28T18:26:13;8.90;94.00
74809;DHT22;63338;39.544;2.596;2023-02-28T18:28:39;8.90;93.80
74809;DHT22;63338;39.544;2.596;2023-02-28T18:31:08;9.00;94.10
74809;DHT22;63338;39.544;2.596;2023-02-28T18:33:34;9.00;94.40
74809;DHT22;63338;39.544;2.596;2023-02-28T18:36:01;9.00;94.40
74809;DHT22;63338;39.544;2.596;2023-02-28T18:38:27;9.00;94.50
74809;DHT22;63338;39.544;2.596;2023-02-28T18:40:58;8.90;94.70